Time;durP1;ratioP1;P1;durP2;ratioP2;P2;SDS_P1;SDS_P2;PMS_P1;PMS_P2;Temp;Humidity;BMP_temperature;BMP_pressure;BME280_temperature;BME280_humidity;BME280_pressure;Samples;Min_cycle;Max_cycle;Signal;HPM_P1;HPM_P2
2022/11/09 00:00:48;;;;;;;5.90;5.17;;;;;;;3.90;100.00;96179.72;5029023;28;103739;-68
2022/11/09 00:03:31;;;;;;;6.00;5.40;;;;;;;3.91;100.00;96178.69;5028372;28;105315;-68
2022/11/09 00:05:59;;;;;;;6.00;5.40;;;;;;;3.76;100.00;96180.84;5010479;28;101957;-68
2022/11/09 00:08:27;;;;;;;6.97;5.90;;;;;;;3.83;100.00;96181.59;5008674;28;104715;-68
2022/11/09 00:10:55;;;;;;;5.70;5.20;;;;;;;3.75;100.00;96179.22;5008058;28;106999;-68
2022/11/09 00:13:24;;;;;;;6.77;5.37;;;;;;;3.86;100.00;96176.72;5008824;28;102265;-68
2022/11/09 00:15:52;;;;;;;5.93;5.37;;;;;;;3.80;100.00;96177.56;5008637;28;104828;-68
2022/11/09 00:18:19;;;;;;;5.83;4.97;;;;;;;3.85;100.00;96169.84;5011583;28;105816;-68
2022/11/09 00:20:46;;;;;;;5.50;4.87;;;;;;;3.78;100.00;96169.06;5008592;28;105615;-68
2022/11/09 00:26:40;;;;;;;4.70;4.30;;;;;;;3.69;100.00;96162.47;5008656;28;101827;-68
2022/11/09 00:29:10;;;;;;;8.13;5.33;;;;;;;3.77;100.00;96166.69;5008446;28;104835;-68
2022/11/09 00:31:37;;;;;;;7.53;5.03;;;;;;;3.78;100.00;96158.56;5008042;28;105217;-68
2022/11/09 00:34:05;;;;;;;5.00;4.57;;;;;;;3.70;100.00;96160.63;5010129;28;102046;-68
2022/11/09 00:36:32;;;;;;;6.20;4.93;;;;;;;3.55;100.00;96160.94;5011930;28;104832;-68
2022/11/09 00:39:00;;;;;;;8.80;4.70;;;;;;;3.67;100.00;96158.44;5012345;28;102449;-68
2022/11/09 00:42:10;;;;;;;6.43;5.00;;;;;;;3.67;100.00;96166.34;5015263;28;101949;-68
2022/11/09 00:44:38;;;;;;;5.20;4.70;;;;;;;3.50;100.00;96152.09;5011147;28;105140;-68
2022/11/09 00:47:08;;;;;;;6.20;5.37;;;;;;;3.59;100.00;96162.13;5011894;28;101753;-68
2022/11/09 00:49:35;;;;;;;5.60;4.47;;;;;;;3.62;100.00;96158.28;5011432;28;105648;-68
2022/11/09 00:56:06;;;;;;;5.50;4.90;;;;;;;3.62;100.00;96166.16;5010039;28;101670;-68
2022/11/09 00:58:38;;;;;;;7.00;5.10;;;;;;;3.53;100.00;96163.00;5011532;28;105241;-68
2022/11/09 01:01:29;;;;;;;5.47;4.47;;;;;;;3.53;100.00;96156.91;5010965;28;104130;-68
2022/11/09 01:03:56;;;;;;;6.00;4.50;;;;;;;3.61;100.00;96167.19;5011663;28;101800;-66
2022/11/09 01:06:25;;;;;;;7.33;5.40;;;;;;;3.71;100.00;96157.81;5014416;28;105604;-66
2022/11/09 01:08:52;;;;;;;5.20;4.70;;;;;;;3.78;100.00;96163.81;5012229;28;101992;-66
2022/11/09 01:11:23;;;;;;;5.20;4.70;;;;;;;3.68;100.00;96157.44;5012747;28;102245;-66
2022/11/09 01:13:53;;;;;;;5.00;4.50;;;;;;;3.69;100.00;96162.47;5010743;28;103730;-66
2022/11/09 01:16:22;;;;;;;5.53;5.03;;;;;;;3.57;100.00;96160.75;5012846;28;101788;-66
2022/11/09 01:18:53;;;;;;;4.73;4.33;;;;;;;3.59;100.00;96148.19;5011175;28;103924;-66
2022/11/09 01:21:40;;;;;;;4.80;4.30;;;;;;;3.20;100.00;96153.69;5010442;28;105246;-66
2022/11/09 01:24:07;;;;;;;4.90;4.37;;;;;;;3.09;100.00;96162.22;5011289;28;101772;-68
2022/11/09 01:26:34;;;;;;;5.30;4.80;;;;;;;3.30;100.00;96165.34;4994533;28;103475;-68
2022/11/09 01:29:01;;;;;;;5.23;4.47;;;;;;;3.35;100.00;96167.34;5015371;28;103084;-68
2022/11/09 01:31:34;;;;;;;5.67;5.07;;;;;;;3.31;100.00;96159.09;5012309;28;103399;-68
2022/11/09 01:34:04;;;;;;;4.70;4.30;;;;;;;3.45;100.00;96163.22;5010474;28;103783;-68
2022/11/09 01:36:33;;;;;;;5.40;4.73;;;;;;;3.52;100.00;96168.44;4994687;28;102037;-68
2022/11/09 01:39:01;;;;;;;6.53;4.90;;;;;;;3.45;100.00;96167.69;5011169;28;105173;-68
2022/11/09 01:42:08;;;;;;;5.33;4.83;;;;;;;3.47;100.00;96161.22;5010060;28;105061;-68
2022/11/09 01:44:38;;;;;;;4.50;4.10;;;;;;;3.15;100.00;96167.44;5010982;28;101873;-68
2022/11/09 01:47:12;;;;;;;4.80;4.40;;;;;;;3.18;100.00;96172.28;5010370;28;103813;-68
2022/11/09 01:49:45;;;;;;;5.03;4.50;;;;;;;3.33;100.00;96167.53;5013308;28;105748;-68
2022/11/09 01:52:16;;;;;;;6.67;4.37;;;;;;;3.22;100.00;96165.59;5010615;28;104683;-68
2022/11/09 01:55:10;;;;;;;5.03;4.50;;;;;;;3.15;100.00;96156.13;5010058;28;104922;-68
2022/11/09 01:57:42;;;;;;;5.13;4.63;;;;;;;3.10;100.00;96155.94;5010721;28;101934;-66
2022/11/09 02:00:14;;;;;;;5.23;4.50;;;;;;;3.11;100.00;96165.47;5008735;28;101814;-66
2022/11/09 02:06:29;;;;;;;4.80;4.40;;;;;;;2.76;100.00;96161.53;5010193;28;102063;-66
2022/11/09 02:09:06;;;;;;;5.57;4.97;;;;;;;2.85;100.00;96162.94;5010197;28;105334;-66
2022/11/09 02:11:58;;;;;;;5.10;4.60;;;;;;;2.91;100.00;96156.84;5010028;28;105329;-66
2022/11/09 02:14:28;;;;;;;5.97;5.40;;;;;;;2.91;100.00;96154.22;5013791;28;102082;-66
2022/11/09 02:16:56;;;;;;;5.13;4.60;;;;;;;2.74;100.00;96147.84;5011005;28;103904;-66
2022/11/09 02:19:22;;;;;;;5.70;4.87;;;;;;;2.86;100.00;96157.50;5010359;28;101871;-66
2022/11/09 02:22:33;;;;;;;5.70;5.20;;;;;;;2.87;100.00;96158.28;5010498;28;104118;-68
2022/11/09 02:28:26;;;;;;;6.77;5.20;;;;;;;2.99;100.00;96135.59;5010109;28;101767;-68
2022/11/09 02:30:56;;;;;;;6.20;5.07;;;;;;;2.98;100.00;96144.50;5026925;28;105280;-68
2022/11/09 02:33:25;;;;;;;5.50;5.00;;;;;;;2.88;100.00;96144.13;5009548;28;105059;-68
2022/11/09 02:35:52;;;;;;;5.50;5.00;;;;;;;2.88;100.00;96139.69;5009976;28;101823;-68
2022/11/09 02:38:21;;;;;;;4.73;4.33;;;;;;;2.96;100.00;96141.28;5012879;28;104890;-69
2022/11/09 02:40:52;;;;;;;6.50;5.00;;;;;;;3.00;100.00;96131.97;5011214;28;103436;-68
2022/11/09 02:43:20;;;;;;;6.07;4.63;;;;;;;2.96;100.00;96136.81;5009914;28;105801;-68
2022/11/09 02:45:49;;;;;;;5.63;4.70;;;;;;;2.93;100.00;96131.19;5009314;28;105157;-68
2022/11/09 02:48:16;;;;;;;6.33;5.17;;;;;;;3.00;100.00;96126.72;5009864;28;101948;-68
2022/11/09 02:50:44;;;;;;;5.20;4.70;;;;;;;3.07;100.00;96127.47;5011052;28;102815;-69
2022/11/09 02:53:44;;;;;;;5.97;5.00;;;;;;;3.01;100.00;96129.13;5009157;28;105511;-66
2022/11/09 02:56:33;;;;;;;5.50;5.00;;;;;;;3.03;100.00;96136.78;5009863;28;101750;-66
2022/11/09 02:59:02;;;;;;;6.40;5.80;;;;;;;3.15;100.00;96137.72;5009304;28;104766;-66
2022/11/09 03:05:18;;;;;;;6.27;5.67;;;;;;;3.39;100.00;96142.25;5007967;28;101974;-66
2022/11/09 03:07:46;;;;;;;7.90;5.80;;;;;;;3.32;100.00;96147.53;5008946;28;105810;-66
2022/11/09 03:10:14;;;;;;;7.20;6.07;;;;;;;3.31;100.00;96140.69;5009327;28;101828;-66
2022/11/09 03:13:17;;;;;;;7.20;6.50;;;;;;;3.39;100.00;96137.00;5009674;28;104845;-66
2022/11/09 03:15:44;;;;;;;7.50;6.17;;;;;;;3.55;100.00;96136.50;5009109;28;105358;-66
2022/11/09 03:18:11;;;;;;;6.87;6.13;;;;;;;3.50;100.00;96144.22;5009527;28;101937;-66
2022/11/09 03:20:41;;;;;;;5.90;5.40;;;;;;;3.44;100.00;96145.06;5009555;28;105008;-66
2022/11/09 03:26:57;;;;;;;6.30;5.37;;;;;;;3.29;100.00;96162.94;5015175;28;101829;-66
2022/11/09 03:29:24;;;;;;;6.67;5.97;;;;;;;3.30;100.00;96164.53;5030241;27;102626;-66
2022/11/09 03:35:42;;;;;;;5.67;5.07;;;;;;;3.34;100.00;96160.47;5007447;28;101995;-66
2022/11/09 03:38:10;;;;;;;5.50;5.00;;;;;;;3.23;100.00;96155.91;5011991;28;102425;-66
2022/11/09 03:40:37;;;;;;;6.47;5.37;;;;;;;3.23;100.00;96161.16;5018166;28;103267;-66
2022/11/09 03:46:51;;;;;;;5.43;4.77;;;;;;;2.84;100.00;96159.50;5008036;28;102231;-66
2022/11/09 03:49:18;;;;;;;6.47;5.00;;;;;;;2.74;100.00;96156.50;5010466;28;101886;-66
2022/11/09 03:55:41;;;;;;;6.33;5.57;;;;;;;2.78;100.00;96146.41;5007499;28;101669;-68
2022/11/09 03:58:11;;;;;;;5.53;4.87;;;;;;;2.65;100.00;96149.06;5008905;28;105069;-68
2022/11/09 04:00:38;;;;;;;6.20;4.77;;;;;;;2.69;100.00;96150.28;5008172;28;103727;-68
2022/11/09 04:03:05;;;;;;;6.20;5.60;;;;;;;2.75;100.00;96147.63;5008792;28;101940;-66
2022/11/09 04:05:32;;;;;;;6.17;5.20;;;;;;;2.85;100.00;96157.69;5014936;28;103893;-66
2022/11/09 04:08:00;;;;;;;5.63;5.13;;;;;;;2.88;100.00;96168.56;5028343;27;104100;-66
2022/11/09 04:10:28;;;;;;;5.83;5.30;;;;;;;2.72;100.00;96173.47;5033624;28;101832;-66
2022/11/09 04:12:56;;;;;;;6.33;5.10;;;;;;;2.76;100.00;96177.31;5036510;28;102872;-66
2022/11/09 04:15:24;;;;;;;5.80;5.20;;;;;;;2.83;100.00;96172.81;5033501;27;101812;-68
2022/11/09 04:17:57;;;;;;;5.73;5.17;;;;;;;2.81;100.00;96166.97;5032321;28;105073;-68
2022/11/09 04:20:24;;;;;;;6.33;5.03;;;;;;;2.78;100.00;96160.34;5033079;27;102674;-66
2022/11/09 04:23:39;;;;;;;7.27;5.07;;;;;;;2.87;100.00;96143.34;5033676;27;101661;-68
2022/11/09 04:26:06;;;;;;;5.50;5.00;;;;;;;2.75;100.00;96147.63;5017808;28;102523;-69
2022/11/09 04:28:35;;;;;;;8.67;5.37;;;;;;;2.75;100.00;96150.25;5012563;28;105397;-68
2022/11/09 04:31:24;;;;;;;6.87;5.07;;;;;;;2.71;100.00;96149.06;5027954;28;102516;-68
2022/11/09 04:33:51;;;;;;;7.00;5.20;;;;;;;2.71;100.00;96148.22;5032113;28;103562;-66
2022/11/09 04:36:18;;;;;;;5.67;4.80;;;;;;;2.62;100.00;96129.28;5021167;27;103117;-66
2022/11/09 04:38:46;;;;;;;5.40;4.90;;;;;;;2.66;100.00;96134.91;5033405;27;102834;-66
2022/11/09 04:41:47;;;;;;;5.80;5.13;;;;;;;2.72;100.00;96139.34;5032770;27;102953;-66
2022/11/09 04:44:15;;;;;;;6.50;5.50;;;;;;;2.75;100.00;96144.19;5033531;27;101710;-66
2022/11/09 04:46:42;;;;;;;7.97;5.80;;;;;;;2.84;100.00;96145.56;5031527;28;105305;-66
2022/11/09 04:49:10;;;;;;;8.20;6.00;;;;;;;2.94;100.00;96144.09;5031250;28;105177;-66
2022/11/09 04:51:37;;;;;;;6.87;5.73;;;;;;;3.03;100.00;96145.50;5031245;28;101947;-66
2022/11/09 04:54:04;;;;;;;7.73;6.00;;;;;;;3.05;100.00;96145.25;5032088;28;103653;-67
2022/11/09 04:57:12;;;;;;;7.90;6.90;;;;;;;3.14;100.00;96144.00;5031116;28;105301;-67
2022/11/09 04:59:41;;;;;;;7.77;6.37;;;;;;;3.17;100.00;96151.47;5035144;28;101845;-66
2022/11/09 05:02:26;;;;;;;7.50;6.00;;;;;;;3.03;100.00;96152.56;5030896;28;105680;-66
2022/11/09 05:04:54;;;;;;;6.13;5.63;;;;;;;2.88;100.00;96152.00;5031697;28;101813;-66
2022/11/09 05:07:21;;;;;;;6.93;5.67;;;;;;;2.97;100.00;96140.25;5031568;28;105201;-66
2022/11/09 05:09:48;;;;;;;6.53;5.87;;;;;;;3.01;100.00;96141.47;5022105;28;105647;-67
2022/11/09 05:12:18;;;;;;;6.83;5.73;;;;;;;3.01;100.00;96144.09;5011394;28;101963;-67
2022/11/09 05:14:47;;;;;;;7.63;5.53;;;;;;;2.98;100.00;96144.50;5011224;28;104768;-67
2022/11/09 05:17:14;;;;;;;5.77;5.17;;;;;;;2.95;100.00;96147.56;5016415;28;104122;-67
2022/11/09 05:19:42;;;;;;;8.00;5.67;;;;;;;2.94;100.00;96138.84;5030783;27;101913;-67
2022/11/09 05:25:03;;;;;;;5.97;5.20;;;;;;;3.00;100.00;96134.59;5017580;28;101967;-67
2022/11/09 05:27:30;;;;;;;8.03;6.60;;;;;;;3.03;100.00;96153.38;5021112;28;104844;-67
2022/11/09 05:29:59;;;;;;;6.90;5.90;;;;;;;2.90;100.00;96152.63;5010188;28;104024;-67
2022/11/09 05:32:28;;;;;;;8.57;6.70;;;;;;;2.84;100.00;96153.47;5011145;28;101942;-67
2022/11/09 05:34:55;;;;;;;9.17;6.73;;;;;;;2.80;100.00;96150.41;5009173;28;103743;-67
2022/11/09 05:37:22;;;;;;;6.63;5.97;;;;;;;2.81;100.00;96153.84;5019803;28;103848;-66
2022/11/09 05:39:49;;;;;;;6.83;6.13;;;;;;;2.65;100.00;96149.06;5030516;28;102176;-67
2022/11/09 05:42:51;;;;;;;9.27;6.30;;;;;;;2.59;100.00;96152.53;5031143;28;106128;-67
2022/11/09 05:45:20;;;;;;;7.33;5.90;;;;;;;2.65;100.00;96156.94;5025270;28;105489;-67
2022/11/09 05:47:47;;;;;;;6.53;5.93;;;;;;;2.72;100.00;96161.16;5010782;28;105254;-67
2022/11/09 05:50:16;;;;;;;7.20;6.50;;;;;;;2.74;100.00;96155.72;5017515;28;105236;-67
2022/11/09 05:53:18;;;;;;;7.73;5.77;;;;;;;2.74;100.00;96155.72;5030776;28;101941;-67
2022/11/09 05:55:48;;;;;;;9.43;6.43;;;;;;;2.74;100.00;96164.38;5014014;28;105498;-67
2022/11/09 05:58:15;;;;;;;7.93;6.03;;;;;;;2.84;100.00;96170.00;5010036;28;105207;-67
2022/11/09 06:00:44;;;;;;;7.73;6.10;;;;;;;2.76;100.00;96174.69;4994202;28;101922;-67
2022/11/09 06:06:34;;;;;;;6.97;5.20;;;;;;;2.68;100.00;96174.91;5009954;28;104022;-67
2022/11/09 06:09:01;;;;;;;6.23;5.63;;;;;;;2.71;100.00;96179.75;5013811;28;101660;-67
2022/11/09 06:15:15;;;;;;;6.73;5.13;;;;;;;2.77;100.00;96182.34;5008566;28;101757;-68
2022/11/09 06:17:43;;;;;;;5.63;5.10;;;;;;;2.80;100.00;96170.63;5011233;28;102797;-68
2022/11/09 06:20:11;;;;;;;6.23;5.63;;;;;;;2.83;100.00;96167.56;5009524;28;105161;-68
2022/11/09 06:22:54;;;;;;;6.37;5.50;;;;;;;2.85;100.00;96171.59;5010850;28;103405;-68
2022/11/09 06:25:50;;;;;;;8.23;5.77;;;;;;;2.99;100.00;96170.56;5011527;28;102338;-68
2022/11/09 06:28:17;;;;;;;9.57;6.07;;;;;;;3.07;100.00;96172.13;5009300;28;103850;-68
2022/11/09 06:45:01;;;;;;;7.63;6.80;;;;;;;3.65;100.00;96178.91;5071797;27;101945;-67
2022/11/09 06:47:28;;;;;;;10.53;7.47;;;;;;;3.80;100.00;96182.00;5067225;27;102757;-67
2022/11/09 06:49:55;;;;;;;8.37;6.70;;;;;;;3.77;100.00;96187.72;5048852;27;102017;-67
2022/11/09 06:52:48;;;;;;;9.77;7.20;;;;;;;4.05;100.00;96199.41;5067602;27;102815;-67
2022/11/09 06:55:15;;;;;;;15.43;12.87;;;;;;;4.15;100.00;96193.69;5066951;27;102761;-67
2022/11/09 06:57:42;;;;;;;15.13;9.50;;;;;;;4.46;100.00;96209.41;5066350;27;101958;-67
2022/11/09 07:00:13;;;;;;;9.83;8.03;;;;;;;4.46;100.00;96212.84;5049321;27;103590;-67
2022/11/09 07:02:42;;;;;;;10.53;8.80;;;;;;;4.79;100.00;96212.50;5067002;27;102716;-67
2022/11/09 07:05:10;;;;;;;14.57;10.93;;;;;;;4.94;100.00;96213.78;5052473;27;102010;-67
2022/11/09 07:07:37;;;;;;;13.50;11.17;;;;;;;4.88;100.00;96216.47;5047339;27;105347;-67
2022/11/09 07:10:04;;;;;;;14.17;11.40;;;;;;;5.10;100.00;96218.47;5066264;27;101989;-67
2022/11/09 07:12:36;;;;;;;12.27;10.40;;;;;;;5.18;100.00;96212.88;5066259;27;102828;-67
2022/11/09 07:15:05;;;;;;;12.10;9.70;;;;;;;5.38;100.00;96218.72;5081399;27;105783;-67
2022/11/09 07:17:35;;;;;;;10.63;8.63;;;;;;;5.57;100.00;96216.88;5067104;27;102188;-67
2022/11/09 07:20:04;;;;;;;8.97;8.07;;;;;;;5.90;100.00;96222.53;5067165;27;102972;-67
2022/11/09 07:22:50;;;;;;;9.37;7.93;;;;;;;6.15;100.00;96221.31;5066353;27;103319;-67
2022/11/09 07:25:17;;;;;;;8.73;7.93;;;;;;;6.36;100.00;96214.69;5067269;27;101864;-67
2022/11/09 07:27:44;;;;;;;9.70;7.30;;;;;;;6.59;100.00;96219.97;5070030;27;102317;-67
2022/11/09 07:30:12;;;;;;;9.00;7.67;;;;;;;6.80;100.00;96222.88;5067156;27;101914;-67
2022/11/09 07:32:50;;;;;;;11.93;8.27;;;;;;;7.14;100.00;96215.94;5066831;27;102951;-68
2022/11/09 07:35:52;;;;;;;8.70;7.80;;;;;;;7.29;100.00;96222.34;5041147;27;106025;-67
2022/11/09 07:38:23;;;;;;;9.00;7.60;;;;;;;7.46;100.00;96225.88;5027784;27;102326;-68
2022/11/09 07:40:50;;;;;;;9.33;8.43;;;;;;;7.64;100.00;96228.31;5028350;27;104962;-67
2022/11/09 07:43:17;;;;;;;9.67;8.67;;;;;;;7.88;100.00;96221.09;5023079;28;103960;-68
2022/11/09 07:45:49;;;;;;;9.90;8.37;;;;;;;8.11;100.00;96226.28;5012687;28;101816;-68
2022/11/09 07:48:18;;;;;;;10.50;9.43;;;;;;;8.25;100.00;96214.38;5011047;28;105536;-68
2022/11/09 07:50:45;;;;;;;9.23;8.03;;;;;;;8.43;100.00;96216.78;4998342;28;105244;-67
2022/11/09 07:53:20;;;;;;;9.93;8.97;;;;;;;8.64;100.00;96210.75;4992422;28;102824;-67
2022/11/09 07:55:56;;;;;;;6.23;5.70;;;;;;;8.73;100.00;96219.94;4990508;28;105477;-69
2022/11/09 07:58:25;;;;;;;6.13;5.53;;;;;;;8.92;100.00;96210.66;4990859;28;101886;-67
2022/11/09 08:00:52;;;;;;;11.00;6.93;;;;;;;9.05;100.00;96208.44;4991069;28;105251;-68
2022/11/09 08:03:42;;;;;;;8.40;6.37;;;;;;;9.17;100.00;96217.09;4990145;28;105712;-67
2022/11/09 08:06:10;;;;;;;7.53;6.47;;;;;;;9.38;100.00;96220.81;4991250;28;101964;-66
2022/11/09 08:08:37;;;;;;;6.53;5.07;;;;;;;9.47;100.00;96222.78;4991829;28;102217;-66
2022/11/09 08:11:04;;;;;;;5.37;4.87;;;;;;;9.67;100.00;96220.41;4990319;28;105208;-66
2022/11/09 08:13:43;;;;;;;7.43;5.60;;;;;;;9.73;100.00;96216.75;5027751;28;101893;-66
2022/11/09 08:16:10;;;;;;;6.77;5.57;;;;;;;9.86;100.00;96218.22;4991718;28;103063;-66
2022/11/09 08:18:37;;;;;;;7.23;5.40;;;;;;;9.91;100.00;96235.00;4992154;28;102175;-66
2022/11/09 08:21:06;;;;;;;7.83;5.40;;;;;;;9.43;100.00;96268.66;4990798;28;105361;-67
2022/11/09 08:23:50;;;;;;;5.57;3.63;;;;;;;9.04;100.00;96267.03;4991370;28;102507;-67
2022/11/09 08:26:17;;;;;;;5.27;3.43;;;;;;;8.90;100.00;96260.47;4990935;28;102117;-68
2022/11/09 08:28:44;;;;;;;5.80;3.50;;;;;;;8.93;100.00;96267.94;4990503;28;105636;-68
2022/11/09 08:31:11;;;;;;;4.23;3.47;;;;;;;8.93;100.00;96276.69;4991186;28;102650;-69
2022/11/09 08:33:55;;;;;;;2.97;2.27;;;;;;;9.32;100.00;96285.50;4990788;28;102090;-69
2022/11/09 08:36:29;;;;;;;2.47;2.03;;;;;;;9.70;100.00;96286.25;4994550;28;103635;-69
2022/11/09 08:38:58;;;;;;;1.70;1.60;;;;;;;10.02;100.00;96316.41;4990316;28;102133;-69
2022/11/09 08:41:34;;;;;;;2.10;1.90;;;;;;;10.28;100.00;96313.00;4991769;28;102739;-67
2022/11/09 08:44:01;;;;;;;1.80;1.60;;;;;;;10.56;100.00;96307.44;5011044;28;102812;-68
2022/11/09 08:46:28;;;;;;;1.40;1.30;;;;;;;10.80;100.00;96315.91;5032007;28;101764;-68
2022/11/09 08:48:55;;;;;;;2.00;1.20;;;;;;;10.74;100.00;96324.88;5047451;27;105598;-68
2022/11/09 08:51:33;;;;;;;2.13;1.40;;;;;;;10.78;100.00;96333.94;5012909;28;105783;-68
2022/11/09 08:54:00;;;;;;;2.83;1.60;;;;;;;10.78;100.00;96324.13;5013563;28;101845;-70
2022/11/09 08:56:27;;;;;;;1.30;1.20;;;;;;;10.82;100.00;96322.56;5030649;27;102320;-70
2022/11/09 08:58:54;;;;;;;1.40;1.30;;;;;;;10.87;100.00;96330.59;5034195;28;102469;-69
2022/11/09 09:01:24;;;;;;;1.40;1.30;;;;;;;10.87;100.00;96335.09;5031743;28;102644;-68
2022/11/09 09:03:51;;;;;;;1.77;1.67;;;;;;;10.81;100.00;96333.44;5012807;28;105345;-69
2022/11/09 09:09:43;;;;;;;1.40;1.30;;;;;;;10.74;100.00;96312.38;5012855;28;105296;-69
2022/11/09 09:15:33;;;;;;;1.50;1.40;;;;;;;10.97;100.00;96321.88;5031530;28;101903;-69
2022/11/09 09:18:01;;;;;;;1.60;1.50;;;;;;;11.17;100.00;96325.50;5031325;28;102900;-68
2022/11/09 09:20:28;;;;;;;2.57;1.57;;;;;;;11.39;100.00;96307.53;5034543;28;102604;-68
2022/11/09 09:23:01;;;;;;;1.93;1.47;;;;;;;11.50;100.00;96321.75;5031536;28;104485;-68
2022/11/09 09:25:30;;;;;;;2.47;1.60;;;;;;;11.61;100.00;96342.06;5031002;28;103026;-69
2022/11/09 09:27:57;;;;;;;1.97;1.60;;;;;;;11.67;100.00;96344.50;5013171;28;101965;-69
2022/11/09 09:30:24;;;;;;;2.40;1.93;;;;;;;11.70;100.00;96341.31;5031544;28;102395;-69
2022/11/09 09:33:00;;;;;;;2.97;2.03;;;;;;;11.73;100.00;96340.00;5030529;28;102918;-69
2022/11/09 09:35:46;;;;;;;3.60;2.70;;;;;;;11.92;100.00;96333.97;5031437;28;102106;-69
2022/11/09 09:38:13;;;;;;;2.60;1.60;;;;;;;11.89;100.00;96339.81;5031437;28;102566;-69
2022/11/09 09:40:50;;;;;;;2.50;2.30;;;;;;;12.18;100.00;96348.22;5030757;28;102824;-69
2022/11/09 09:43:27;;;;;;;2.20;2.00;;;;;;;12.44;100.00;96348.00;5011326;28;101932;-68
2022/11/09 09:45:55;;;;;;;3.47;1.60;;;;;;;12.32;100.00;96350.13;4990781;28;102642;-69
2022/11/09 09:48:30;;;;;;;1.67;1.57;;;;;;;12.47;100.00;96349.34;4989672;28;101880;-67
2022/11/09 09:51:03;;;;;;;1.67;1.40;;;;;;;12.63;100.00;96348.34;4989299;28;105608;-67
2022/11/09 09:53:53;;;;;;;3.10;2.80;;;;;;;12.76;100.00;96335.28;4988705;28;105580;-66
2022/11/09 09:56:25;;;;;;;1.80;1.30;;;;;;;12.80;100.00;96339.03;4988568;28;103077;-66
2022/11/09 09:58:58;;;;;;;1.63;1.40;;;;;;;13.12;100.00;96336.13;4989253;28;103857;-67
2022/11/09 10:01:35;;;;;;;1.43;1.30;;;;;;;13.24;100.00;96342.03;4988781;28;105509;-68
2022/11/09 10:04:02;;;;;;;1.57;1.47;;;;;;;13.36;100.00;96329.22;4989358;28;101846;-67
2022/11/09 10:06:58;;;;;;;2.90;1.53;;;;;;;13.56;100.00;96323.81;4992005;28;105625;-67
2022/11/09 10:09:37;;;;;;;2.17;1.30;;;;;;;13.64;100.00;96324.09;4989279;28;101854;-67
2022/11/09 10:12:41;;;;;;;2.50;1.00;;;;;;;13.95;100.00;96316.78;4989177;28;104813;-67
2022/11/09 10:15:31;;;;;;;2.13;1.20;;;;;;;14.27;100.00;96309.16;4988536;28;103941;-67
2022/11/09 10:18:15;;;;;;;1.50;1.40;;;;;;;14.47;100.00;96309.88;4988849;28;102018;-67
2022/11/09 10:20:55;;;;;;;1.87;1.20;;;;;;;14.67;100.00;96301.72;4989238;28;105506;-67
2022/11/09 10:23:46;;;;;;;1.60;1.50;;;;;;;14.89;100.00;96304.75;4990045;28;102516;-67
2022/11/09 10:26:18;;;;;;;2.33;2.13;;;;;;;14.98;100.00;96288.94;4990492;28;101779;-67
2022/11/09 10:28:53;;;;;;;4.10;1.47;;;;;;;14.93;100.00;96292.44;4990237;28;102292;-67
2022/11/09 10:31:22;;;;;;;2.50;2.30;;;;;;;14.76;100.00;96300.06;4993351;28;102745;-67
2022/11/09 10:33:56;;;;;;;1.30;1.20;;;;;;;15.13;100.00;96304.84;4988901;28;105123;-67
2022/11/09 10:36:47;;;;;;;5.53;1.23;;;;;;;15.30;100.00;96298.00;4989659;28;102505;-67
2022/11/09 10:39:16;;;;;;;1.30;1.20;;;;;;;15.50;100.00;96297.06;4988846;28;101894;-67
2022/11/09 10:42:25;;;;;;;2.70;2.43;;;;;;;15.31;100.00;96294.25;4987370;28;102229;-67
2022/11/09 10:45:29;;;;;;;2.60;1.70;;;;;;;15.15;100.00;96300.03;5018550;28;102295;-67
2022/11/09 10:48:15;;;;;;;1.60;1.10;;;;;;;15.22;100.00;96300.50;5026993;28;101932;-67
2022/11/09 10:51:00;;;;;;;1.67;1.30;;;;;;;15.84;100.00;96287.84;5027184;28;102182;-67
2022/11/09 10:54:15;;;;;;;2.47;1.50;;;;;;;16.28;100.00;96283.00;5029971;28;102216;-67
2022/11/09 10:57:11;;;;;;;1.23;1.13;;;;;;;16.43;100.00;96287.41;5030508;28;102182;-67
2022/11/09 10:59:58;;;;;;;1.47;1.00;;;;;;;16.27;100.00;96272.56;5026564;28;102290;-67
2022/11/09 11:02:48;;;;;;;2.13;1.30;;;;;;;16.21;100.00;96271.03;5027190;28;101723;-67
2022/11/09 11:05:40;;;;;;;2.07;1.30;;;;;;;16.43;100.00;96258.69;5026883;28;102035;-67
2022/11/09 11:08:29;;;;;;;3.70;1.20;;;;;;;16.63;100.00;96252.22;5026158;28;102005;-67
2022/11/09 11:11:22;;;;;;;3.90;1.10;;;;;;;16.86;100.00;96251.31;5026951;28;101725;-67
2022/11/09 11:14:14;;;;;;;2.20;2.00;;;;;;;16.92;100.00;96244.78;5026593;28;102246;-67
2022/11/09 11:17:00;;;;;;;2.87;2.67;;;;;;;17.36;100.00;96245.91;5026299;28;101837;-67
2022/11/09 11:19:47;;;;;;;2.00;1.20;;;;;;;17.91;100.00;96236.00;5031267;27;101753;-67
2022/11/09 11:22:34;;;;;;;1.03;1.03;;;;;;;18.00;100.00;96228.81;5029816;28;102255;-67
2022/11/09 11:25:21;;;;;;;1.33;0.90;;;;;;;18.25;100.00;96222.91;5030035;28;103342;-67
2022/11/09 11:28:17;;;;;;;0.70;0.70;;;;;;;18.44;100.00;96221.69;5030022;28;102234;-67
2022/11/09 11:31:04;;;;;;;0.63;0.63;;;;;;;18.43;100.00;96211.22;5029604;28;102353;-67
2022/11/09 11:34:13;;;;;;;0.70;0.70;;;;;;;18.53;100.00;96219.09;5030061;28;101756;-67
2022/11/09 11:37:34;;;;;;;0.80;0.80;;;;;;;18.45;100.00;96219.78;5033038;28;102100;-67
2022/11/09 11:40:28;;;;;;;1.13;0.67;;;;;;;18.39;100.00;96212.94;5028991;28;102287;-67
2022/11/09 11:43:30;;;;;;;0.97;0.83;;;;;;;18.58;100.00;96202.81;5029729;28;102008;-67
2022/11/09 11:46:28;;;;;;;2.17;0.90;;;;;;;18.73;100.00;96197.84;4978091;28;102120;-67
2022/11/09 11:49:53;;;;;;;1.00;0.70;;;;;;;18.66;100.00;96204.75;4989835;28;101721;-67
2022/11/09 11:53:08;;;;;;;0.97;0.70;;;;;;;19.01;100.00;96198.53;4992510;28;105481;-67
2022/11/09 11:56:22;;;;;;;0.87;0.60;;;;;;;19.26;100.00;96190.63;4989034;28;101999;-67
2022/11/09 11:59:43;;;;;;;0.97;0.80;;;;;;;19.40;100.00;96187.81;4989299;28;101940;-67
2022/11/09 12:03:22;;;;;;;0.70;0.70;;;;;;;19.33;100.00;96185.56;4989531;28;102058;-67
2022/11/09 12:10:15;;;;;;;1.17;0.70;;;;;;;19.44;100.00;96186.88;4989429;28;101849;-67
2022/11/09 12:13:37;;;;;;;2.60;0.80;;;;;;;19.91;100.00;96188.00;4931091;28;102072;-70
2022/11/09 12:16:31;;;;;;;0.73;0.70;;;;;;;19.96;100.00;96177.88;4931116;28;102283;-67
2022/11/09 12:19:34;;;;;;;1.17;1.00;;;;;;;19.77;87.61;96179.22;4928780;28;103291;-67
2022/11/09 12:26:13;;;;;;;2.37;1.10;;;;;;;19.82;78.84;96162.88;4928406;28;102000;-66
2022/11/09 12:29:09;;;;;;;2.10;1.10;;;;;;;19.76;82.13;96164.13;4909396;28;102058;-66
2022/11/09 12:32:09;;;;;;;1.20;1.20;;;;;;;19.89;85.40;96152.44;4908441;28;102233;-67
2022/11/09 12:35:30;;;;;;;1.87;1.20;;;;;;;19.88;75.29;96153.53;4913057;28;101786;-68
2022/11/09 12:38:21;;;;;;;2.00;1.20;;;;;;;19.93;75.42;96154.19;4927099;28;102074;-68
2022/11/09 12:41:13;;;;;;;1.53;1.10;;;;;;;20.40;96.29;96149.81;4927454;28;102285;-67
2022/11/09 12:44:04;;;;;;;1.80;1.00;;;;;;;20.59;90.39;96148.38;4913199;28;101996;-67
2022/11/09 12:46:56;;;;;;;3.83;1.10;;;;;;;20.90;84.40;96149.03;4927092;28;102279;-67
2022/11/09 12:49:44;;;;;;;1.53;1.40;;;;;;;21.07;84.91;96140.06;4952580;28;102099;-67
2022/11/09 12:52:30;;;;;;;3.77;1.33;;;;;;;20.95;82.56;96143.44;4989232;28;102060;-67
2022/11/09 12:55:18;;;;;;;1.93;1.20;;;;;;;20.66;88.86;96140.59;4987925;28;102235;-66
2022/11/09 12:58:06;;;;;;;1.63;1.20;;;;;;;20.90;80.01;96142.81;4988781;28;101926;-66
2022/11/09 13:00:55;;;;;;;2.40;0.93;;;;;;;21.27;86.21;96132.06;4969207;28;102638;-68
2022/11/09 13:07:48;;;;;;;0.80;0.80;;;;;;;21.49;91.36;96141.84;4968461;28;101772;-66
2022/11/09 13:10:36;;;;;;;0.80;0.80;;;;;;;21.90;89.60;96136.56;4971557;28;102573;-67
2022/11/09 13:13:26;;;;;;;1.17;0.90;;;;;;;22.04;86.17;96132.50;4986905;28;101691;-67
2022/11/09 13:16:32;;;;;;;1.23;0.93;;;;;;;21.52;80.99;96130.38;4988458;28;102074;-65
2022/11/09 13:19:53;;;;;;;1.50;0.90;;;;;;;21.41;97.13;96129.16;4987967;28;102213;-66
2022/11/09 13:26:24;;;;;;;0.90;0.80;;;;;;;21.73;89.05;96126.63;4988128;28;103297;-67
2022/11/09 13:29:23;;;;;;;0.80;0.80;;;;;;;21.85;89.83;96129.41;4987679;28;102233;-67